sensor_id;sensor_type;location;lat;lon;timestamp;P1;durP1;ratioP1;P2;durP2;ratioP2
13933;SDS011;7039;52.168;9.866;2023-08-06T00:02:19;5.47;;;3.20;;
13933;SDS011;7039;52.168;9.866;2023-08-06T00:04:45;5.43;;;3.00;;
13933;SDS011;7039;52.168;9.866;2023-08-06T00:07:12;5.70;;;3.10;;
13933;SDS011;7039;52.168;9.866;2023-08-06T00:09:40;3.23;;;2.83;;
13933;SDS011;7039;52.168;9.866;2023-08-06T00:12:07;5.77;;;3.17;;
13933;SDS011;7039;52.168;9.866;2023-08-06T00:14:33;6.50;;;2.97;;
13933;SDS011;7039;52.168;9.866;2023-08-06T00:17:00;7.27;;;2.97;;
13933;SDS011;7039;52.168;9.866;2023-08-06T00:19:26;3.17;;;2.60;;
13933;SDS011;7039;52.168;9.866;2023-08-06T00:21:53;6.33;;;3.23;;
13933;SDS011;7039;52.168;9.866;2023-08-06T00:24:19;4.53;;;3.23;;
13933;SDS011;7039;52.168;9.866;2023-08-06T00:26:47;3.73;;;3.10;;
13933;SDS011;7039;52.168;9.866;2023-08-06T00:29:13;5.93;;;3.30;;
13933;SDS011;7039;52.168;9.866;2023-08-06T00:31:40;4.53;;;3.17;;
13933;SDS011;7039;52.168;9.866;2023-08-06T00:34:06;3.67;;;3.20;;
13933;SDS011;7039;52.168;9.866;2023-08-06T00:36:33;6.93;;;3.57;;
13933;SDS011;7039;52.168;9.866;2023-08-06T00:38:59;3.13;;;2.83;;
13933;SDS011;7039;52.168;9.866;2023-08-06T00:41:26;3.30;;;2.90;;
13933;SDS011;7039;52.168;9.866;2023-08-06T00:43:53;6.77;;;3.17;;
13933;SDS011;7039;52.168;9.866;2023-08-06T00:46:20;3.80;;;3.40;;
13933;SDS011;7039;52.168;9.866;2023-08-06T00:48:47;9.93;;;3.03;;
13933;SDS011;7039;52.168;9.866;2023-08-06T00:51:13;4.77;;;3.00;;
13933;SDS011;7039;52.168;9.866;2023-08-06T00:53:41;4.83;;;3.20;;
13933;SDS011;7039;52.168;9.866;2023-08-06T00:56:08;3.07;;;2.77;;
13933;SDS011;7039;52.168;9.866;2023-08-06T00:58:35;5.07;;;3.30;;
13933;SDS011;7039;52.168;9.866;2023-08-06T01:01:04;3.40;;;3.10;;
13933;SDS011;7039;52.168;9.866;2023-08-06T01:03:31;6.00;;;3.33;;
13933;SDS011;7039;52.168;9.866;2023-08-06T01:05:57;3.93;;;2.77;;
13933;SDS011;7039;52.168;9.866;2023-08-06T01:08:28;6.13;;;3.03;;
13933;SDS011;7039;52.168;9.866;2023-08-06T01:11:01;4.57;;;2.77;;
13933;SDS011;7039;52.168;9.866;2023-08-06T01:13:41;3.70;;;3.10;;
13933;SDS011;7039;52.168;9.866;2023-08-06T01:16:13;6.43;;;3.20;;
13933;SDS011;7039;52.168;9.866;2023-08-06T01:18:42;3.40;;;2.90;;
13933;SDS011;7039;52.168;9.866;2023-08-06T01:21:12;3.57;;;2.73;;
13933;SDS011;7039;52.168;9.866;2023-08-06T01:23:39;3.93;;;3.57;;
13933;SDS011;7039;52.168;9.866;2023-08-06T01:26:09;3.97;;;2.93;;
13933;SDS011;7039;52.168;9.866;2023-08-06T01:28:41;5.33;;;3.60;;
13933;SDS011;7039;52.168;9.866;2023-08-06T01:31:21;6.33;;;3.33;;
13933;SDS011;7039;52.168;9.866;2023-08-06T01:33:50;7.00;;;3.47;;
13933;SDS011;7039;52.168;9.866;2023-08-06T01:36:20;5.83;;;3.10;;
13933;SDS011;7039;52.168;9.866;2023-08-06T01:38:47;6.33;;;3.00;;
13933;SDS011;7039;52.168;9.866;2023-08-06T01:41:13;9.37;;;3.90;;
13933;SDS011;7039;52.168;9.866;2023-08-06T01:43:40;10.30;;;4.87;;
13933;SDS011;7039;52.168;9.866;2023-08-06T01:46:06;5.43;;;4.37;;
13933;SDS011;7039;52.168;9.866;2023-08-06T01:48:32;7.20;;;4.57;;
13933;SDS011;7039;52.168;9.866;2023-08-06T01:50:59;9.00;;;4.40;;
13933;SDS011;7039;52.168;9.866;2023-08-06T01:53:27;6.00;;;4.43;;
13933;SDS011;7039;52.168;9.866;2023-08-06T01:55:53;6.37;;;4.77;;
13933;SDS011;7039;52.168;9.866;2023-08-06T01:58:20;8.07;;;4.20;;
13933;SDS011;7039;52.168;9.866;2023-08-06T02:00:46;8.00;;;4.17;;
13933;SDS011;7039;52.168;9.866;2023-08-06T02:03:12;7.13;;;4.20;;
13933;SDS011;7039;52.168;9.866;2023-08-06T02:05:39;5.83;;;3.73;;
13933;SDS011;7039;52.168;9.866;2023-08-06T02:08:06;4.97;;;3.80;;
13933;SDS011;7039;52.168;9.866;2023-08-06T02:44:20;3.90;;;2.87;;
13933;SDS011;7039;52.168;9.866;2023-08-06T02:46:46;9.30;;;3.00;;
13933;SDS011;7039;52.168;9.866;2023-08-06T02:49:13;4.30;;;2.60;;
13933;SDS011;7039;52.168;9.866;2023-08-06T02:51:39;2.50;;;2.30;;
13933;SDS011;7039;52.168;9.866;2023-08-06T02:54:06;4.47;;;2.50;;
13933;SDS011;7039;52.168;9.866;2023-08-06T02:56:33;4.53;;;2.40;;
13933;SDS011;7039;52.168;9.866;2023-08-06T02:58:59;3.00;;;2.70;;
13933;SDS011;7039;52.168;9.866;2023-08-06T03:01:27;8.37;;;3.27;;
13933;SDS011;7039;52.168;9.866;2023-08-06T03:03:54;5.17;;;2.60;;
13933;SDS011;7039;52.168;9.866;2023-08-06T03:06:21;12.63;;;2.70;;
13933;SDS011;7039;52.168;9.866;2023-08-06T03:08:47;4.90;;;2.60;;
13933;SDS011;7039;52.168;9.866;2023-08-06T03:11:14;3.13;;;2.70;;
13933;SDS011;7039;52.168;9.866;2023-08-06T03:13:41;3.83;;;2.67;;
13933;SDS011;7039;52.168;9.866;2023-08-06T03:16:08;5.47;;;2.70;;
13933;SDS011;7039;52.168;9.866;2023-08-06T03:18:36;9.33;;;3.13;;
13933;SDS011;7039;52.168;9.866;2023-08-06T03:21:02;6.50;;;2.93;;
13933;SDS011;7039;52.168;9.866;2023-08-06T03:23:32;5.27;;;2.83;;
13933;SDS011;7039;52.168;9.866;2023-08-06T03:26:00;5.67;;;3.30;;
13933;SDS011;7039;52.168;9.866;2023-08-06T03:28:27;4.57;;;3.27;;
13933;SDS011;7039;52.168;9.866;2023-08-06T03:30:58;4.73;;;2.80;;
13933;SDS011;7039;52.168;9.866;2023-08-06T03:33:26;7.17;;;3.00;;
13933;SDS011;7039;52.168;9.866;2023-08-06T03:35:54;4.00;;;2.57;;
13933;SDS011;7039;52.168;9.866;2023-08-06T03:38:21;5.77;;;3.17;;
13933;SDS011;7039;52.168;9.866;2023-08-06T03:40:48;3.67;;;3.17;;
13933;SDS011;7039;52.168;9.866;2023-08-06T03:43:15;3.60;;;3.03;;
13933;SDS011;7039;52.168;9.866;2023-08-06T03:45:42;6.93;;;4.00;;
13933;SDS011;7039;52.168;9.866;2023-08-06T03:48:08;8.43;;;3.80;;
13933;SDS011;7039;52.168;9.866;2023-08-06T04:10:35;7.13;;;4.60;;
13933;SDS011;7039;52.168;9.866;2023-08-06T04:13:01;8.67;;;4.70;;
13933;SDS011;7039;52.168;9.866;2023-08-06T04:15:28;7.90;;;4.83;;
13933;SDS011;7039;52.168;9.866;2023-08-06T04:17:54;6.50;;;3.97;;
13933;SDS011;7039;52.168;9.866;2023-08-06T04:20:21;8.53;;;4.90;;
13933;SDS011;7039;52.168;9.866;2023-08-06T04:22:48;9.73;;;5.33;;
13933;SDS011;7039;52.168;9.866;2023-08-06T04:25:14;10.70;;;5.27;;
13933;SDS011;7039;52.168;9.866;2023-08-06T04:27:47;9.40;;;5.50;;
13933;SDS011;7039;52.168;9.866;2023-08-06T04:30:13;7.20;;;5.40;;
13933;SDS011;7039;52.168;9.866;2023-08-06T04:32:40;8.17;;;5.27;;
13933;SDS011;7039;52.168;9.866;2023-08-06T04:35:07;9.10;;;5.23;;
13933;SDS011;7039;52.168;9.866;2023-08-06T04:37:33;8.27;;;5.30;;
13933;SDS011;7039;52.168;9.866;2023-08-06T04:40:00;6.67;;;5.23;;
13933;SDS011;7039;52.168;9.866;2023-08-06T04:42:26;7.00;;;4.90;;
13933;SDS011;7039;52.168;9.866;2023-08-06T04:44:54;7.33;;;4.93;;
13933;SDS011;7039;52.168;9.866;2023-08-06T04:47:21;13.13;;;5.10;;
13933;SDS011;7039;52.168;9.866;2023-08-06T04:49:47;7.33;;;4.80;;
13933;SDS011;7039;52.168;9.866;2023-08-06T04:52:14;9.23;;;5.07;;
13933;SDS011;7039;52.168;9.866;2023-08-06T04:54:40;8.73;;;4.43;;
13933;SDS011;7039;52.168;9.866;2023-08-06T04:57:06;7.80;;;4.50;;
13933;SDS011;7039;52.168;9.866;2023-08-06T04:59:33;5.37;;;4.53;;
13933;SDS011;7039;52.168;9.866;2023-08-06T05:02:01;10.20;;;5.30;;
13933;SDS011;7039;52.168;9.866;2023-08-06T05:04:28;9.27;;;3.50;;
13933;SDS011;7039;52.168;9.866;2023-08-06T05:06:54;7.43;;;3.63;;
13933;SDS011;7039;52.168;9.866;2023-08-06T05:09:21;4.80;;;3.63;;
13933;SDS011;7039;52.168;9.866;2023-08-06T05:11:47;6.37;;;3.20;;
13933;SDS011;7039;52.168;9.866;2023-08-06T05:14:15;6.90;;;3.70;;
13933;SDS011;7039;52.168;9.866;2023-08-06T05:16:41;3.80;;;3.30;;
13933;SDS011;7039;52.168;9.866;2023-08-06T05:19:09;13.10;;;3.57;;
13933;SDS011;7039;52.168;9.866;2023-08-06T05:21:35;6.70;;;3.63;;
13933;SDS011;7039;52.168;9.866;2023-08-06T05:24:02;4.90;;;4.07;;
13933;SDS011;7039;52.168;9.866;2023-08-06T05:26:29;6.47;;;3.90;;
13933;SDS011;7039;52.168;9.866;2023-08-06T05:28:55;5.87;;;3.37;;
13933;SDS011;7039;52.168;9.866;2023-08-06T05:31:22;4.83;;;3.60;;
13933;SDS011;7039;52.168;9.866;2023-08-06T05:33:48;5.43;;;3.83;;
13933;SDS011;7039;52.168;9.866;2023-08-06T05:36:16;9.17;;;4.43;;
13933;SDS011;7039;52.168;9.866;2023-08-06T05:38:42;8.60;;;4.23;;
13933;SDS011;7039;52.168;9.866;2023-08-06T05:41:09;4.27;;;3.63;;
13933;SDS011;7039;52.168;9.866;2023-08-06T05:43:35;5.13;;;3.83;;
13933;SDS011;7039;52.168;9.866;2023-08-06T05:46:02;8.37;;;4.17;;
13933;SDS011;7039;52.168;9.866;2023-08-06T05:48:29;6.20;;;3.83;;
13933;SDS011;7039;52.168;9.866;2023-08-06T05:50:56;6.83;;;4.63;;
13933;SDS011;7039;52.168;9.866;2023-08-06T05:53:25;5.87;;;3.40;;
13933;SDS011;7039;52.168;9.866;2023-08-06T05:55:51;3.17;;;2.87;;
13933;SDS011;7039;52.168;9.866;2023-08-06T05:58:17;5.57;;;3.70;;
13933;SDS011;7039;52.168;9.866;2023-08-06T06:00:45;7.60;;;3.90;;
13933;SDS011;7039;52.168;9.866;2023-08-06T06:03:11;5.67;;;3.17;;
13933;SDS011;7039;52.168;9.866;2023-08-06T06:05:38;4.43;;;3.53;;
13933;SDS011;7039;52.168;9.866;2023-08-06T06:08:05;3.10;;;2.80;;
13933;SDS011;7039;52.168;9.866;2023-08-06T06:10:32;3.97;;;2.90;;
13933;SDS011;7039;52.168;9.866;2023-08-06T06:12:59;3.47;;;2.87;;
13933;SDS011;7039;52.168;9.866;2023-08-06T06:15:25;6.07;;;2.83;;
13933;SDS011;7039;52.168;9.866;2023-08-06T06:17:52;3.60;;;2.93;;
13933;SDS011;7039;52.168;9.866;2023-08-06T06:20:18;4.10;;;2.70;;
13933;SDS011;7039;52.168;9.866;2023-08-06T06:22:45;5.37;;;3.00;;
13933;SDS011;7039;52.168;9.866;2023-08-06T06:25:11;4.10;;;2.97;;
13933;SDS011;7039;52.168;9.866;2023-08-06T06:27:39;5.40;;;2.93;;
13933;SDS011;7039;52.168;9.866;2023-08-06T06:30:06;3.40;;;3.10;;
13933;SDS011;7039;52.168;9.866;2023-08-06T06:32:33;5.03;;;2.83;;
13933;SDS011;7039;52.168;9.866;2023-08-06T06:35:00;4.17;;;3.00;;
13933;SDS011;7039;52.168;9.866;2023-08-06T06:37:26;5.07;;;2.90;;
13933;SDS011;7039;52.168;9.866;2023-08-06T06:39:53;4.17;;;2.57;;
13933;SDS011;7039;52.168;9.866;2023-08-06T06:42:19;7.30;;;2.53;;
13933;SDS011;7039;52.168;9.866;2023-08-06T06:44:47;4.20;;;2.80;;
13933;SDS011;7039;52.168;9.866;2023-08-06T06:47:13;5.47;;;2.77;;
13933;SDS011;7039;52.168;9.866;2023-08-06T06:49:40;3.47;;;2.83;;
13933;SDS011;7039;52.168;9.866;2023-08-06T06:52:06;4.70;;;2.80;;
13933;SDS011;7039;52.168;9.866;2023-08-06T06:54:33;4.27;;;2.60;;
13933;SDS011;7039;52.168;9.866;2023-08-06T06:56:59;5.90;;;2.80;;
13933;SDS011;7039;52.168;9.866;2023-08-06T06:59:26;3.00;;;2.20;;
13933;SDS011;7039;52.168;9.866;2023-08-06T07:01:54;4.83;;;2.70;;
13933;SDS011;7039;52.168;9.866;2023-08-06T07:04:20;8.03;;;2.67;;
13933;SDS011;7039;52.168;9.866;2023-08-06T07:06:47;3.80;;;2.73;;
13933;SDS011;7039;52.168;9.866;2023-08-06T07:09:13;2.30;;;2.10;;
13933;SDS011;7039;52.168;9.866;2023-08-06T07:11:39;6.07;;;2.60;;
13933;SDS011;7039;52.168;9.866;2023-08-06T07:14:08;2.50;;;2.30;;
13933;SDS011;7039;52.168;9.866;2023-08-06T07:16:35;3.83;;;2.40;;
13933;SDS011;7039;52.168;9.866;2023-08-06T07:19:02;2.77;;;2.40;;
13933;SDS011;7039;52.168;9.866;2023-08-06T07:21:30;5.23;;;2.40;;
13933;SDS011;7039;52.168;9.866;2023-08-06T07:23:57;3.37;;;2.20;;
13933;SDS011;7039;52.168;9.866;2023-08-06T07:26:24;3.67;;;2.47;;
13933;SDS011;7039;52.168;9.866;2023-08-06T07:28:51;3.37;;;2.53;;
13933;SDS011;7039;52.168;9.866;2023-08-06T07:31:17;3.10;;;2.37;;
13933;SDS011;7039;52.168;9.866;2023-08-06T07:33:44;3.63;;;2.23;;
13933;SDS011;7039;52.168;9.866;2023-08-06T07:36:12;2.40;;;2.20;;
13933;SDS011;7039;52.168;9.866;2023-08-06T07:38:40;2.80;;;2.40;;
13933;SDS011;7039;52.168;9.866;2023-08-06T07:41:06;2.67;;;2.20;;
13933;SDS011;7039;52.168;9.866;2023-08-06T07:43:33;2.87;;;2.50;;
13933;SDS011;7039;52.168;9.866;2023-08-06T07:46:00;2.67;;;2.20;;
13933;SDS011;7039;52.168;9.866;2023-08-06T07:48:27;3.40;;;2.60;;
13933;SDS011;7039;52.168;9.866;2023-08-06T07:50:54;3.87;;;2.87;;
13933;SDS011;7039;52.168;9.866;2023-08-06T07:53:22;8.47;;;2.80;;
13933;SDS011;7039;52.168;9.866;2023-08-06T07:55:52;5.37;;;2.60;;
13933;SDS011;7039;52.168;9.866;2023-08-06T07:58:20;4.30;;;2.60;;
13933;SDS011;7039;52.168;9.866;2023-08-06T08:00:47;4.03;;;2.40;;
13933;SDS011;7039;52.168;9.866;2023-08-06T08:03:13;2.90;;;2.40;;
13933;SDS011;7039;52.168;9.866;2023-08-06T08:05:41;4.33;;;2.70;;
13933;SDS011;7039;52.168;9.866;2023-08-06T08:08:08;4.20;;;2.60;;
13933;SDS011;7039;52.168;9.866;2023-08-06T08:10:36;4.53;;;2.60;;
13933;SDS011;7039;52.168;9.866;2023-08-06T08:13:04;4.83;;;2.60;;
13933;SDS011;7039;52.168;9.866;2023-08-06T08:15:31;6.87;;;2.80;;
13933;SDS011;7039;52.168;9.866;2023-08-06T08:17:58;6.00;;;2.70;;
13933;SDS011;7039;52.168;9.866;2023-08-06T08:20:26;4.40;;;3.30;;
13933;SDS011;7039;52.168;9.866;2023-08-06T08:22:56;8.87;;;2.80;;
13933;SDS011;7039;52.168;9.866;2023-08-06T08:25:23;3.70;;;2.87;;
13933;SDS011;7039;52.168;9.866;2023-08-06T08:27:51;6.20;;;2.77;;
13933;SDS011;7039;52.168;9.866;2023-08-06T08:30:17;5.27;;;2.73;;
13933;SDS011;7039;52.168;9.866;2023-08-06T08:32:44;3.03;;;2.77;;
13933;SDS011;7039;52.168;9.866;2023-08-06T08:35:10;2.90;;;2.70;;
13933;SDS011;7039;52.168;9.866;2023-08-06T08:37:37;4.90;;;2.80;;
13933;SDS011;7039;52.168;9.866;2023-08-06T08:40:05;2.70;;;2.33;;
13933;SDS011;7039;52.168;9.866;2023-08-06T08:42:32;4.17;;;2.67;;
13933;SDS011;7039;52.168;9.866;2023-08-06T08:45:00;2.90;;;2.53;;
13933;SDS011;7039;52.168;9.866;2023-08-06T08:47:33;2.67;;;2.47;;
13933;SDS011;7039;52.168;9.866;2023-08-06T08:50:00;3.53;;;2.60;;
13933;SDS011;7039;52.168;9.866;2023-08-06T08:52:28;3.93;;;2.83;;
13933;SDS011;7039;52.168;9.866;2023-08-06T08:54:57;3.67;;;2.60;;
13933;SDS011;7039;52.168;9.866;2023-08-06T08:57:26;7.53;;;2.37;;
13933;SDS011;7039;52.168;9.866;2023-08-06T08:59:52;3.97;;;2.97;;
13933;SDS011;7039;52.168;9.866;2023-08-06T09:02:20;3.03;;;2.83;;
13933;SDS011;7039;52.168;9.866;2023-08-06T09:04:47;3.23;;;2.43;;
13933;SDS011;7039;52.168;9.866;2023-08-06T09:07:16;3.33;;;2.90;;
13933;SDS011;7039;52.168;9.866;2023-08-06T09:09:46;2.73;;;2.40;;
13933;SDS011;7039;52.168;9.866;2023-08-06T09:12:15;4.17;;;2.63;;
13933;SDS011;7039;52.168;9.866;2023-08-06T09:14:42;2.77;;;2.53;;
13933;SDS011;7039;52.168;9.866;2023-08-06T09:17:09;4.90;;;2.80;;
13933;SDS011;7039;52.168;9.866;2023-08-06T09:19:39;3.37;;;2.80;;
13933;SDS011;7039;52.168;9.866;2023-08-06T09:22:11;8.10;;;2.57;;
13933;SDS011;7039;52.168;9.866;2023-08-06T09:24:38;5.43;;;2.83;;
13933;SDS011;7039;52.168;9.866;2023-08-06T09:27:06;4.27;;;2.93;;
13933;SDS011;7039;52.168;9.866;2023-08-06T09:29:39;4.53;;;2.67;;
13933;SDS011;7039;52.168;9.866;2023-08-06T09:32:06;2.83;;;2.63;;
13933;SDS011;7039;52.168;9.866;2023-08-06T09:34:33;4.77;;;2.63;;
13933;SDS011;7039;52.168;9.866;2023-08-06T09:37:00;3.40;;;2.70;;
13933;SDS011;7039;52.168;9.866;2023-08-06T09:39:27;2.97;;;2.43;;
13933;SDS011;7039;52.168;9.866;2023-08-06T09:41:55;3.73;;;2.43;;
13933;SDS011;7039;52.168;9.866;2023-08-06T09:44:24;2.90;;;2.40;;
13933;SDS011;7039;52.168;9.866;2023-08-06T09:46:52;3.93;;;2.47;;
13933;SDS011;7039;52.168;9.866;2023-08-06T09:49:20;2.70;;;2.30;;
13933;SDS011;7039;52.168;9.866;2023-08-06T09:51:48;2.60;;;2.40;;
13933;SDS011;7039;52.168;9.866;2023-08-06T09:54:19;3.20;;;2.60;;
13933;SDS011;7039;52.168;9.866;2023-08-06T09:56:46;3.07;;;2.50;;
13933;SDS011;7039;52.168;9.866;2023-08-06T09:59:14;3.17;;;2.43;;
13933;SDS011;7039;52.168;9.866;2023-08-06T10:01:41;3.50;;;2.20;;
13933;SDS011;7039;52.168;9.866;2023-08-06T10:04:08;4.40;;;2.37;;
13933;SDS011;7039;52.168;9.866;2023-08-06T10:06:36;6.90;;;2.50;;
13933;SDS011;7039;52.168;9.866;2023-08-06T10:09:03;3.20;;;2.33;;
13933;SDS011;7039;52.168;9.866;2023-08-06T10:11:31;5.50;;;2.23;;
13933;SDS011;7039;52.168;9.866;2023-08-06T10:14:00;2.70;;;2.40;;
13933;SDS011;7039;52.168;9.866;2023-08-06T10:16:30;2.30;;;2.10;;
13933;SDS011;7039;52.168;9.866;2023-08-06T10:18:58;2.63;;;2.23;;
13933;SDS011;7039;52.168;9.866;2023-08-06T10:21:30;3.20;;;2.40;;
13933;SDS011;7039;52.168;9.866;2023-08-06T10:23:57;2.40;;;2.20;;
13933;SDS011;7039;52.168;9.866;2023-08-06T10:26:25;2.53;;;2.33;;
13933;SDS011;7039;52.168;9.866;2023-08-06T10:28:54;2.40;;;2.07;;
13933;SDS011;7039;52.168;9.866;2023-08-06T10:34:24;5.60;;;2.40;;
13933;SDS011;7039;52.168;9.866;2023-08-06T10:36:53;4.73;;;2.17;;
13933;SDS011;7039;52.168;9.866;2023-08-06T10:39:20;3.10;;;2.37;;
13933;SDS011;7039;52.168;9.866;2023-08-06T10:41:46;2.63;;;1.97;;
13933;SDS011;7039;52.168;9.866;2023-08-06T10:44:14;2.40;;;2.20;;
13933;SDS011;7039;52.168;9.866;2023-08-06T10:46:40;4.07;;;2.40;;
13933;SDS011;7039;52.168;9.866;2023-08-06T10:49:06;2.57;;;2.37;;
13933;SDS011;7039;52.168;9.866;2023-08-06T10:51:33;3.60;;;2.67;;
13933;SDS011;7039;52.168;9.866;2023-08-06T10:54:00;4.30;;;2.43;;
13933;SDS011;7039;52.168;9.866;2023-08-06T10:56:27;3.57;;;2.10;;
13933;SDS011;7039;52.168;9.866;2023-08-06T10:58:54;3.40;;;2.45;;
13933;SDS011;7039;52.168;9.866;2023-08-06T11:01:22;3.17;;;2.30;;
13933;SDS011;7039;52.168;9.866;2023-08-06T11:03:49;7.90;;;2.50;;
13933;SDS011;7039;52.168;9.866;2023-08-06T11:06:18;3.15;;;2.20;;
13933;SDS011;7039;52.168;9.866;2023-08-06T11:08:47;4.85;;;2.60;;
13933;SDS011;7039;52.168;9.866;2023-08-06T11:11:16;5.20;;;2.95;;
13933;SDS011;7039;52.168;9.866;2023-08-06T11:13:44;3.83;;;2.05;;
13933;SDS011;7039;52.168;9.866;2023-08-06T11:16:12;2.80;;;2.35;;
13933;SDS011;7039;52.168;9.866;2023-08-06T11:18:40;4.03;;;2.30;;
13933;SDS011;7039;52.168;9.866;2023-08-06T11:21:07;2.00;;;1.63;;
13933;SDS011;7039;52.168;9.866;2023-08-06T11:23:34;2.83;;;1.95;;
13933;SDS011;7039;52.168;9.866;2023-08-06T11:26:01;2.20;;;2.00;;
13933;SDS011;7039;52.168;9.866;2023-08-06T11:28:28;3.15;;;1.73;;
13933;SDS011;7039;52.168;9.866;2023-08-06T11:30:55;3.25;;;2.05;;
13933;SDS011;7039;52.168;9.866;2023-08-06T11:33:22;2.78;;;2.10;;
13933;SDS011;7039;52.168;9.866;2023-08-06T11:35:51;2.13;;;1.92;;
13933;SDS011;7039;52.168;9.866;2023-08-06T11:38:18;2.80;;;2.03;;
13933;SDS011;7039;52.168;9.866;2023-08-06T11:40:45;2.25;;;1.80;;
13933;SDS011;7039;52.168;9.866;2023-08-06T11:43:11;3.05;;;2.10;;
13933;SDS011;7039;52.168;9.866;2023-08-06T11:45:38;5.82;;;1.70;;
13933;SDS011;7039;52.168;9.866;2023-08-06T11:48:04;2.38;;;1.98;;
13933;SDS011;7039;52.168;9.866;2023-08-06T11:50:31;1.77;;;1.67;;
13933;SDS011;7039;52.168;9.866;2023-08-06T11:53:03;2.17;;;1.98;;
13933;SDS011;7039;52.168;9.866;2023-08-06T11:55:30;2.25;;;1.83;;
13933;SDS011;7039;52.168;9.866;2023-08-06T11:57:57;2.63;;;1.85;;
13933;SDS011;7039;52.168;9.866;2023-08-06T12:00:24;1.90;;;1.80;;
13933;SDS011;7039;52.168;9.866;2023-08-06T12:02:52;4.22;;;1.95;;
13933;SDS011;7039;52.168;9.866;2023-08-06T12:05:20;2.97;;;1.80;;
13933;SDS011;7039;52.168;9.866;2023-08-06T12:07:49;3.20;;;1.58;;
13933;SDS011;7039;52.168;9.866;2023-08-06T12:10:18;2.15;;;1.90;;
13933;SDS011;7039;52.168;9.866;2023-08-06T12:12:45;3.25;;;1.73;;
13933;SDS011;7039;52.168;9.866;2023-08-06T12:15:14;1.70;;;1.60;;
13933;SDS011;7039;52.168;9.866;2023-08-06T12:17:40;2.10;;;1.73;;
13933;SDS011;7039;52.168;9.866;2023-08-06T12:20:08;1.83;;;1.70;;
13933;SDS011;7039;52.168;9.866;2023-08-06T12:22:35;2.97;;;1.80;;
13933;SDS011;7039;52.168;9.866;2023-08-06T12:25:05;3.33;;;1.88;;
13933;SDS011;7039;52.168;9.866;2023-08-06T12:27:35;2.17;;;1.70;;
13933;SDS011;7039;52.168;9.866;2023-08-06T12:30:02;2.42;;;1.67;;
13933;SDS011;7039;52.168;9.866;2023-08-06T12:32:30;2.22;;;1.85;;
13933;SDS011;7039;52.168;9.866;2023-08-06T12:34:57;2.55;;;1.80;;
13933;SDS011;7039;52.168;9.866;2023-08-06T12:37:23;1.98;;;1.70;;
13933;SDS011;7039;52.168;9.866;2023-08-06T12:39:50;3.60;;;2.00;;
13933;SDS011;7039;52.168;9.866;2023-08-06T12:42:17;2.78;;;1.77;;
13933;SDS011;7039;52.168;9.866;2023-08-06T12:44:45;2.10;;;1.70;;
13933;SDS011;7039;52.168;9.866;2023-08-06T12:47:11;4.90;;;1.88;;
13933;SDS011;7039;52.168;9.866;2023-08-06T12:49:38;2.05;;;1.85;;
13933;SDS011;7039;52.168;9.866;2023-08-06T12:52:05;2.20;;;2.00;;
13933;SDS011;7039;52.168;9.866;2023-08-06T12:54:34;5.05;;;1.80;;
13933;SDS011;7039;52.168;9.866;2023-08-06T12:57:02;2.65;;;1.52;;
13933;SDS011;7039;52.168;9.866;2023-08-06T12:59:29;3.17;;;2.05;;
13933;SDS011;7039;52.168;9.866;2023-08-06T13:01:57;7.40;;;2.03;;
13933;SDS011;7039;52.168;9.866;2023-08-06T13:04:23;2.30;;;2.10;;
13933;SDS011;7039;52.168;9.866;2023-08-06T13:06:50;2.15;;;1.70;;
13933;SDS011;7039;52.168;9.866;2023-08-06T13:09:16;4.30;;;2.00;;
13933;SDS011;7039;52.168;9.866;2023-08-06T13:11:43;1.83;;;1.70;;
13933;SDS011;7039;52.168;9.866;2023-08-06T13:14:11;1.70;;;1.60;;
13933;SDS011;7039;52.168;9.866;2023-08-06T13:16:40;3.05;;;2.05;;
13933;SDS011;7039;52.168;9.866;2023-08-06T13:19:09;1.65;;;1.52;;
13933;SDS011;7039;52.168;9.866;2023-08-06T13:21:58;2.63;;;2.40;;
13933;SDS011;7039;52.168;9.866;2023-08-06T13:24:28;3.38;;;2.67;;
13933;SDS011;7039;52.168;9.866;2023-08-06T13:26:54;5.47;;;2.47;;
13933;SDS011;7039;52.168;9.866;2023-08-06T13:29:21;3.75;;;2.78;;
13933;SDS011;7039;52.168;9.866;2023-08-06T13:31:47;4.15;;;2.72;;
13933;SDS011;7039;52.168;9.866;2023-08-06T13:34:15;2.65;;;2.42;;
13933;SDS011;7039;52.168;9.866;2023-08-06T13:36:42;3.20;;;2.67;;
13933;SDS011;7039;52.168;9.866;2023-08-06T13:39:08;2.53;;;2.33;;
13933;SDS011;7039;52.168;9.866;2023-08-06T13:41:34;2.80;;;2.50;;
13933;SDS011;7039;52.168;9.866;2023-08-06T13:44:01;2.58;;;2.35;;
13933;SDS011;7039;52.168;9.866;2023-08-06T13:46:27;2.63;;;2.42;;
13933;SDS011;7039;52.168;9.866;2023-08-06T13:48:54;2.85;;;2.50;;
13933;SDS011;7039;52.168;9.866;2023-08-06T13:51:21;3.40;;;2.40;;
13933;SDS011;7039;52.168;9.866;2023-08-06T13:53:48;2.88;;;2.47;;
13933;SDS011;7039;52.168;9.866;2023-08-06T13:56:14;4.57;;;2.70;;
13933;SDS011;7039;52.168;9.866;2023-08-06T13:58:42;2.58;;;2.35;;
13933;SDS011;7039;52.168;9.866;2023-08-06T14:01:09;3.08;;;2.67;;
13933;SDS011;7039;52.168;9.866;2023-08-06T14:03:35;2.80;;;2.60;;
13933;SDS011;7039;52.168;9.866;2023-08-06T14:06:02;2.80;;;2.47;;
13933;SDS011;7039;52.168;9.866;2023-08-06T14:08:30;3.88;;;3.08;;
13933;SDS011;7039;52.168;9.866;2023-08-06T14:10:57;4.93;;;2.40;;
13933;SDS011;7039;52.168;9.866;2023-08-06T14:13:23;3.55;;;3.03;;
13933;SDS011;7039;52.168;9.866;2023-08-06T14:15:50;4.90;;;2.60;;
13933;SDS011;7039;52.168;9.866;2023-08-06T14:18:16;3.72;;;2.58;;
13933;SDS011;7039;52.168;9.866;2023-08-06T14:20:43;3.50;;;2.40;;
13933;SDS011;7039;52.168;9.866;2023-08-06T14:23:10;3.53;;;2.20;;
13933;SDS011;7039;52.168;9.866;2023-08-06T14:25:38;1.80;;;1.70;;
13933;SDS011;7039;52.168;9.866;2023-08-06T14:28:05;3.63;;;1.90;;
13933;SDS011;7039;52.168;9.866;2023-08-06T14:30:32;2.47;;;2.28;;
13933;SDS011;7039;52.168;9.866;2023-08-06T14:32:59;3.25;;;2.70;;
13933;SDS011;7039;52.168;9.866;2023-08-06T14:35:26;3.38;;;2.88;;
13933;SDS011;7039;52.168;9.866;2023-08-06T14:37:53;4.10;;;2.55;;
13933;SDS011;7039;52.168;9.866;2023-08-06T14:40:19;2.85;;;2.53;;
13933;SDS011;7039;52.168;9.866;2023-08-06T14:42:47;2.63;;;2.40;;
13933;SDS011;7039;52.168;9.866;2023-08-06T14:45:14;3.00;;;2.40;;
13933;SDS011;7039;52.168;9.866;2023-08-06T14:47:40;2.92;;;2.55;;
13933;SDS011;7039;52.168;9.866;2023-08-06T14:50:07;4.57;;;2.60;;
13933;SDS011;7039;52.168;9.866;2023-08-06T14:52:34;4.28;;;2.75;;
13933;SDS011;7039;52.168;9.866;2023-08-06T14:55:01;3.30;;;3.00;;
13933;SDS011;7039;52.168;9.866;2023-08-06T14:57:28;3.08;;;2.78;;
13933;SDS011;7039;52.168;9.866;2023-08-06T14:59:56;4.22;;;3.10;;
13933;SDS011;7039;52.168;9.866;2023-08-06T15:02:23;4.22;;;2.90;;
13933;SDS011;7039;52.168;9.866;2023-08-06T15:04:49;2.95;;;2.65;;
13933;SDS011;7039;52.168;9.866;2023-08-06T15:07:16;2.90;;;2.70;;
13933;SDS011;7039;52.168;9.866;2023-08-06T15:09:42;3.83;;;2.70;;
13933;SDS011;7039;52.168;9.866;2023-08-06T15:12:10;3.80;;;2.80;;
13933;SDS011;7039;52.168;9.866;2023-08-06T15:14:36;4.55;;;2.75;;
13933;SDS011;7039;52.168;9.866;2023-08-06T15:17:04;3.08;;;2.80;;
13933;SDS011;7039;52.168;9.866;2023-08-06T15:19:31;2.90;;;2.70;;
13933;SDS011;7039;52.168;9.866;2023-08-06T15:21:57;3.93;;;2.90;;
13933;SDS011;7039;52.168;9.866;2023-08-06T15:24:24;3.17;;;2.87;;
13933;SDS011;7039;52.168;9.866;2023-08-06T15:26:50;8.00;;;3.13;;
13933;SDS011;7039;52.168;9.866;2023-08-06T15:29:17;3.93;;;2.90;;
13933;SDS011;7039;52.168;9.866;2023-08-06T15:31:43;3.13;;;2.73;;
13933;SDS011;7039;52.168;9.866;2023-08-06T15:34:11;3.90;;;2.30;;
13933;SDS011;7039;52.168;9.866;2023-08-06T15:36:37;2.87;;;2.30;;
13933;SDS011;7039;52.168;9.866;2023-08-06T15:39:04;7.00;;;2.50;;
13933;SDS011;7039;52.168;9.866;2023-08-06T15:41:31;2.42;;;2.22;;
13933;SDS011;7039;52.168;9.866;2023-08-06T15:43:57;2.78;;;2.30;;
13933;SDS011;7039;52.168;9.866;2023-08-06T15:46:24;4.53;;;3.65;;
13933;SDS011;7039;52.168;9.866;2023-08-06T15:48:50;2.80;;;2.53;;
13933;SDS011;7039;52.168;9.866;2023-08-06T15:51:18;2.45;;;2.17;;
13933;SDS011;7039;52.168;9.866;2023-08-06T15:53:44;4.18;;;2.53;;
13933;SDS011;7039;52.168;9.866;2023-08-06T15:56:11;3.25;;;2.40;;
13933;SDS011;7039;52.168;9.866;2023-08-06T15:58:38;2.70;;;2.50;;